Flight Track Log - Related Links

Times and Time Zones

All times are in EDT time to prevent confusion due to time zone crossing. See the THY2414 flight status page for this flight to view local times or setup timezone preferences in your user account.

Time Position Orientation Groundspeed Altitude Reporting Facility
EDT Latitude Longitude Course Direction KTS MPH feet Rate Location/Type
Tue 05:11:32 AM 40.4778 29.0759 159° South  Level Estimated
Tue 05:12:32 AM 40.3876 29.1216 159° South  Level Estimated
Tue 05:13:32 AM 40.2973 29.1671 159° South  Level Estimated
Tue 05:14:32 AM 40.2070 29.2125 159° South  Level Estimated
Tue 05:15:32 AM 40.1167 29.2578 159° South  Level Estimated
Tue 05:16:32 AM 40.0264 29.3029 159° South  Level Estimated
Tue 05:17:32 AM 39.9361 29.3480 159° South  Level Estimated
Tue 05:18:32 AM 39.8457 29.3929 159° South  Level Estimated
Tue 05:19:32 AM 39.7554 29.4377 159° South  Level Estimated
Tue 05:20:32 AM 39.6650 29.4824 159° South  Level Estimated
Tue 05:21:32 AM 39.5746 29.5270 159° South  Level Estimated
Tue 05:22:32 AM 39.4841 29.5714 159° South  Level Estimated
Tue 05:23:32 AM 39.3937 29.6158 159° South  Level Estimated
Tue 05:24:32 AM 39.3032 29.6600 159° South  Level Estimated
Tue 05:25:32 AM 39.2128 29.7041 159° South  Level Estimated
Tue 05:26:32 AM 39.1223 29.7481 159° South  Level Estimated
Tue 05:27:32 AM 39.0318 29.7920 159° South  Level Estimated
Tue 05:28:32 AM 38.9412 29.8358 159° South  Level Estimated
Tue 05:29:32 AM 38.8507 29.8794 159° South  Level Estimated
Tue 05:30:32 AM 38.7602 29.9230 159° South  Level Estimated
Tue 05:31:32 AM 38.6696 29.9664 159° South  Level Estimated
Tue 05:32:32 AM 38.5790 30.0097 160° South  Level Estimated
Tue 05:33:32 AM 38.4884 30.0530 160° South  Level Estimated
Tue 05:34:32 AM 38.3978 30.0961 160° South  Level Estimated
Tue 05:35:32 AM 38.3072 30.1391 160° South  Level Estimated
Tue 05:36:32 AM 38.2165 30.1820 160° South  Level Estimated
Tue 05:37:32 AM 38.1258 30.2248 160° South  Level Estimated
Tue 05:38:32 AM 38.0351 30.2674 160° South  Level Estimated
Tue 05:39:32 AM 37.9445 30.3100 160° South  Level Estimated
Tue 05:40:32 AM 37.8537 30.3525 160° South  Level Estimated
Tue 05:41:32 AM 37.7630 30.3949 160° South  Level Estimated
Tue 05:42:32 AM 37.6723 30.4371 160° South  Level Estimated
Tue 05:43:32 AM 37.5815 30.4793 160° South  Level Estimated
Tue 05:44:32 AM 37.4907 30.5213 160° South  Level Estimated
Tue 05:45:32 AM 37.3999 30.5633 160° South  Level Estimated
Tue 05:46:32 AM 37.3092 30.6052 160° South  Level Estimated
Tue 05:47:32 AM 37.2183 30.6469 160° South  Level Estimated
Tue 05:48:32 AM 37.1275 30.6886 160° South  Level Estimated
Tue 05:49:32 AM 37.0367 30.7301 160° South  Level Estimated
Tue 05:50:32 AM 36.9458 30.7716 160° South  Level Estimated
Tue 05:51:32 AM 36.8549 30.8129 340° North  Level Estimated
Tue 05:52:32 AM 36.9458 30.7716 160° South  Level Estimated
Tue 05:53:32 AM 36.8549 30.8129 340° North  Level Estimated
Tue 05:54:32 AM 36.9458 30.7716 160° South  Level Estimated
Tue 05:55:32 AM 36.8549 30.8129 340° North  Level Estimated
Tue 05:56:32 AM 36.9458 30.7716 160° South  Level Estimated
Tue 05:57:32 AM 36.8549 30.8129 340° North  Level Estimated
Tue 05:58:32 AM 36.9458 30.7716 160° South  Level Estimated
Tue 05:59:32 AM 36.8549 30.8129 340° North  Level Estimated
Tue 06:00:32 AM 36.9458 30.7716 160° South  Level Estimated
Tue 06:01:32 AM 36.8549 30.8129 340° North  Level Estimated
Tue 06:02:32 AM 36.9458 30.7716 160° South  Level Estimated
Tue 06:03:32 AM 36.8549 30.8129 340° North  Level Estimated
Tue 06:04:32 AM 36.9458 30.7716 160° South  Level Estimated
Tue 06:05:32 AM 36.8549 30.8129 340° North  Level Estimated
Tue 06:06:32 AM 36.9458 30.7716 340° North  Level Estimated

Login

Don't have an account? Register now (free) for customized features, flight alerts, and more!